sensor_id;sensor_type;location;lat;lon;timestamp;P1;durP1;ratioP1;P2;durP2;ratioP2
16385;SDS011;8302;51.154;4.456;2022-12-19T00:00:23;5.22;;;2.50;;
16385;SDS011;8302;51.154;4.456;2022-12-19T00:02:51;4.88;;;3.53;;
16385;SDS011;8302;51.154;4.456;2022-12-19T00:05:21;5.70;;;2.28;;
16385;SDS011;8302;51.154;4.456;2022-12-19T00:07:51;4.97;;;2.92;;
16385;SDS011;8302;51.154;4.456;2022-12-19T00:10:19;5.00;;;2.85;;
16385;SDS011;8302;51.154;4.456;2022-12-19T00:12:47;7.63;;;2.72;;
16385;SDS011;8302;51.154;4.456;2022-12-19T00:15:15;4.97;;;3.17;;
16385;SDS011;8302;51.154;4.456;2022-12-19T00:17:43;4.93;;;2.55;;
16385;SDS011;8302;51.154;4.456;2022-12-19T00:20:10;5.70;;;2.60;;
16385;SDS011;8302;51.154;4.456;2022-12-19T00:22:44;4.25;;;2.55;;
16385;SDS011;8302;51.154;4.456;2022-12-19T00:25:15;6.00;;;2.65;;
16385;SDS011;8302;51.154;4.456;2022-12-19T00:27:44;6.00;;;3.10;;
16385;SDS011;8302;51.154;4.456;2022-12-19T00:30:12;7.10;;;2.60;;
16385;SDS011;8302;51.154;4.456;2022-12-19T00:32:40;3.78;;;2.17;;
16385;SDS011;8302;51.154;4.456;2022-12-19T00:35:08;3.63;;;1.95;;
16385;SDS011;8302;51.154;4.456;2022-12-19T00:37:36;2.13;;;1.92;;
16385;SDS011;8302;51.154;4.456;2022-12-19T00:40:16;4.65;;;2.50;;
16385;SDS011;8302;51.154;4.456;2022-12-19T00:42:44;4.07;;;2.83;;
16385;SDS011;8302;51.154;4.456;2022-12-19T00:45:19;4.13;;;1.60;;
16385;SDS011;8302;51.154;4.456;2022-12-19T00:47:47;3.13;;;2.63;;
16385;SDS011;8302;51.154;4.456;2022-12-19T00:50:15;4.28;;;2.28;;
16385;SDS011;8302;51.154;4.456;2022-12-19T00:52:43;2.97;;;2.08;;
16385;SDS011;8302;51.154;4.456;2022-12-19T00:55:11;4.55;;;2.60;;
16385;SDS011;8302;51.154;4.456;2022-12-19T00:57:46;3.85;;;2.42;;
16385;SDS011;8302;51.154;4.456;2022-12-19T01:00:17;6.25;;;2.60;;
16385;SDS011;8302;51.154;4.456;2022-12-19T01:02:45;3.58;;;1.98;;
16385;SDS011;8302;51.154;4.456;2022-12-19T01:05:13;2.47;;;1.75;;
16385;SDS011;8302;51.154;4.456;2022-12-19T01:07:41;6.35;;;2.67;;
16385;SDS011;8302;51.154;4.456;2022-12-19T01:10:09;6.07;;;2.30;;
16385;SDS011;8302;51.154;4.456;2022-12-19T01:12:37;3.85;;;2.17;;
16385;SDS011;8302;51.154;4.456;2022-12-19T01:15:15;3.80;;;2.20;;
16385;SDS011;8302;51.154;4.456;2022-12-19T01:17:44;4.63;;;2.53;;
16385;SDS011;8302;51.154;4.456;2022-12-19T01:20:13;3.92;;;2.45;;
16385;SDS011;8302;51.154;4.456;2022-12-19T01:22:42;3.38;;;2.10;;
16385;SDS011;8302;51.154;4.456;2022-12-19T01:25:12;2.70;;;1.92;;
16385;SDS011;8302;51.154;4.456;2022-12-19T01:27:40;4.47;;;2.63;;
16385;SDS011;8302;51.154;4.456;2022-12-19T01:30:09;3.88;;;1.85;;
16385;SDS011;8302;51.154;4.456;2022-12-19T01:32:39;3.00;;;2.10;;
16385;SDS011;8302;51.154;4.456;2022-12-19T01:35:08;2.88;;;1.73;;
16385;SDS011;8302;51.154;4.456;2022-12-19T01:37:47;2.80;;;1.65;;
16385;SDS011;8302;51.154;4.456;2022-12-19T01:40:15;4.47;;;2.70;;
16385;SDS011;8302;51.154;4.456;2022-12-19T01:42:43;3.20;;;1.98;;
16385;SDS011;8302;51.154;4.456;2022-12-19T01:45:27;3.45;;;2.03;;
16385;SDS011;8302;51.154;4.456;2022-12-19T01:48:06;4.63;;;2.38;;
16385;SDS011;8302;51.154;4.456;2022-12-19T01:50:40;3.80;;;1.75;;
16385;SDS011;8302;51.154;4.456;2022-12-19T01:53:29;4.93;;;1.80;;
16385;SDS011;8302;51.154;4.456;2022-12-19T01:55:58;4.28;;;2.40;;
16385;SDS011;8302;51.154;4.456;2022-12-19T01:58:35;4.07;;;2.45;;
16385;SDS011;8302;51.154;4.456;2022-12-19T02:01:04;6.78;;;1.88;;
16385;SDS011;8302;51.154;4.456;2022-12-19T02:03:34;3.33;;;1.98;;
16385;SDS011;8302;51.154;4.456;2022-12-19T02:06:04;3.08;;;1.63;;
16385;SDS011;8302;51.154;4.456;2022-12-19T02:08:32;2.85;;;1.73;;
16385;SDS011;8302;51.154;4.456;2022-12-19T02:11:02;2.50;;;1.77;;
16385;SDS011;8302;51.154;4.456;2022-12-19T02:13:31;4.47;;;1.45;;
16385;SDS011;8302;51.154;4.456;2022-12-19T02:16:00;6.22;;;1.70;;
16385;SDS011;8302;51.154;4.456;2022-12-19T02:18:32;4.28;;;2.45;;
16385;SDS011;8302;51.154;4.456;2022-12-19T02:21:13;4.07;;;2.15;;
16385;SDS011;8302;51.154;4.456;2022-12-19T02:26:39;5.03;;;2.20;;
16385;SDS011;8302;51.154;4.456;2022-12-19T02:29:17;4.22;;;1.52;;
16385;SDS011;8302;51.154;4.456;2022-12-19T02:31:50;2.30;;;1.52;;
16385;SDS011;8302;51.154;4.456;2022-12-19T02:34:24;4.07;;;2.10;;
16385;SDS011;8302;51.154;4.456;2022-12-19T02:37:02;3.92;;;1.83;;
16385;SDS011;8302;51.154;4.456;2022-12-19T02:39:33;3.42;;;2.20;;
16385;SDS011;8302;51.154;4.456;2022-12-19T02:42:04;3.80;;;2.55;;
16385;SDS011;8302;51.154;4.456;2022-12-19T02:44:37;2.92;;;1.90;;
16385;SDS011;8302;51.154;4.456;2022-12-19T02:47:08;2.42;;;1.98;;
16385;SDS011;8302;51.154;4.456;2022-12-19T02:49:37;5.13;;;2.03;;
16385;SDS011;8302;51.154;4.456;2022-12-19T02:52:07;2.63;;;1.67;;
16385;SDS011;8302;51.154;4.456;2022-12-19T02:54:35;1.70;;;1.40;;
16385;SDS011;8302;51.154;4.456;2022-12-19T02:57:15;2.55;;;1.90;;
16385;SDS011;8302;51.154;4.456;2022-12-19T02:59:48;4.55;;;2.65;;
16385;SDS011;8302;51.154;4.456;2022-12-19T03:02:24;5.22;;;2.25;;
16385;SDS011;8302;51.154;4.456;2022-12-19T03:04:57;2.63;;;2.20;;
16385;SDS011;8302;51.154;4.456;2022-12-19T03:07:28;3.63;;;2.17;;
16385;SDS011;8302;51.154;4.456;2022-12-19T03:10:00;2.58;;;2.00;;
16385;SDS011;8302;51.154;4.456;2022-12-19T03:12:31;3.17;;;1.90;;
16385;SDS011;8302;51.154;4.456;2022-12-19T03:15:00;2.35;;;1.88;;
16385;SDS011;8302;51.154;4.456;2022-12-19T03:17:34;3.53;;;2.33;;
16385;SDS011;8302;51.154;4.456;2022-12-19T03:20:04;3.20;;;1.63;;
16385;SDS011;8302;51.154;4.456;2022-12-19T03:22:34;2.13;;;1.65;;
16385;SDS011;8302;51.154;4.456;2022-12-19T03:25:03;3.47;;;1.92;;
16385;SDS011;8302;51.154;4.456;2022-12-19T03:27:32;3.42;;;2.05;;
16385;SDS011;8302;51.154;4.456;2022-12-19T03:30:02;2.53;;;1.85;;
16385;SDS011;8302;51.154;4.456;2022-12-19T03:32:31;4.50;;;1.50;;
16385;SDS011;8302;51.154;4.456;2022-12-19T03:35:02;2.25;;;1.50;;
16385;SDS011;8302;51.154;4.456;2022-12-19T03:37:32;2.83;;;1.80;;
16385;SDS011;8302;51.154;4.456;2022-12-19T03:40:01;3.03;;;1.58;;
16385;SDS011;8302;51.154;4.456;2022-12-19T03:42:31;3.05;;;2.13;;
16385;SDS011;8302;51.154;4.456;2022-12-19T03:45:20;4.07;;;2.15;;
16385;SDS011;8302;51.154;4.456;2022-12-19T03:47:51;2.40;;;1.80;;
16385;SDS011;8302;51.154;4.456;2022-12-19T03:50:24;3.33;;;1.48;;
16385;SDS011;8302;51.154;4.456;2022-12-19T03:52:55;2.70;;;1.80;;
16385;SDS011;8302;51.154;4.456;2022-12-19T03:55:29;1.92;;;1.67;;
16385;SDS011;8302;51.154;4.456;2022-12-19T03:57:59;2.85;;;1.83;;
16385;SDS011;8302;51.154;4.456;2022-12-19T04:00:29;3.83;;;1.58;;
16385;SDS011;8302;51.154;4.456;2022-12-19T04:02:58;1.52;;;1.40;;
16385;SDS011;8302;51.154;4.456;2022-12-19T04:05:28;2.92;;;1.63;;
16385;SDS011;8302;51.154;4.456;2022-12-19T04:07:57;3.10;;;2.08;;
16385;SDS011;8302;51.154;4.456;2022-12-19T04:10:26;2.28;;;1.80;;
16385;SDS011;8302;51.154;4.456;2022-12-19T04:12:55;2.78;;;1.85;;
16385;SDS011;8302;51.154;4.456;2022-12-19T04:15:30;1.63;;;1.40;;
16385;SDS011;8302;51.154;4.456;2022-12-19T04:17:59;3.75;;;2.00;;
16385;SDS011;8302;51.154;4.456;2022-12-19T04:20:29;2.67;;;1.75;;
16385;SDS011;8302;51.154;4.456;2022-12-19T04:22:58;2.58;;;1.65;;
16385;SDS011;8302;51.154;4.456;2022-12-19T04:25:28;2.67;;;1.73;;
16385;SDS011;8302;51.154;4.456;2022-12-19T04:27:58;2.65;;;1.80;;
16385;SDS011;8302;51.154;4.456;2022-12-19T04:30:28;2.97;;;1.73;;
16385;SDS011;8302;51.154;4.456;2022-12-19T04:33:02;1.85;;;1.10;;
16385;SDS011;8302;51.154;4.456;2022-12-19T04:35:34;4.22;;;1.92;;
16385;SDS011;8302;51.154;4.456;2022-12-19T04:38:03;3.33;;;2.03;;
16385;SDS011;8302;51.154;4.456;2022-12-19T04:40:32;2.80;;;1.73;;
16385;SDS011;8302;51.154;4.456;2022-12-19T04:43:06;2.00;;;1.50;;
16385;SDS011;8302;51.154;4.456;2022-12-19T04:45:34;2.03;;;1.65;;
16385;SDS011;8302;51.154;4.456;2022-12-19T04:48:02;3.63;;;1.83;;
16385;SDS011;8302;51.154;4.456;2022-12-19T04:50:35;2.50;;;2.10;;
16385;SDS011;8302;51.154;4.456;2022-12-19T04:53:03;3.10;;;1.88;;
16385;SDS011;8302;51.154;4.456;2022-12-19T04:55:31;2.35;;;1.20;;
16385;SDS011;8302;51.154;4.456;2022-12-19T04:57:59;2.67;;;1.50;;
16385;SDS011;8302;51.154;4.456;2022-12-19T05:00:27;2.83;;;2.20;;
16385;SDS011;8302;51.154;4.456;2022-12-19T05:02:55;2.88;;;1.30;;
16385;SDS011;8302;51.154;4.456;2022-12-19T05:05:23;3.35;;;1.65;;
16385;SDS011;8302;51.154;4.456;2022-12-19T05:07:53;1.38;;;1.08;;
16385;SDS011;8302;51.154;4.456;2022-12-19T05:10:21;2.05;;;1.38;;
16385;SDS011;8302;51.154;4.456;2022-12-19T05:12:49;3.38;;;1.83;;
16385;SDS011;8302;51.154;4.456;2022-12-19T05:15:17;4.18;;;1.48;;
16385;SDS011;8302;51.154;4.456;2022-12-19T05:17:45;1.70;;;1.60;;
16385;SDS011;8302;51.154;4.456;2022-12-19T05:20:13;0.93;;;0.85;;
16385;SDS011;8302;51.154;4.456;2022-12-19T05:22:41;2.08;;;1.50;;
16385;SDS011;8302;51.154;4.456;2022-12-19T05:25:10;1.65;;;1.40;;
16385;SDS011;8302;51.154;4.456;2022-12-19T05:27:38;2.53;;;1.63;;
16385;SDS011;8302;51.154;4.456;2022-12-19T05:30:07;2.35;;;1.23;;
16385;SDS011;8302;51.154;4.456;2022-12-19T05:32:35;2.03;;;1.67;;
16385;SDS011;8302;51.154;4.456;2022-12-19T05:35:03;2.65;;;1.40;;
16385;SDS011;8302;51.154;4.456;2022-12-19T05:37:33;2.45;;;1.48;;
16385;SDS011;8302;51.154;4.456;2022-12-19T05:40:01;1.98;;;1.65;;
16385;SDS011;8302;51.154;4.456;2022-12-19T05:42:30;2.53;;;1.65;;
16385;SDS011;8302;51.154;4.456;2022-12-19T05:44:58;1.90;;;1.67;;
16385;SDS011;8302;51.154;4.456;2022-12-19T05:47:26;2.47;;;1.65;;
16385;SDS011;8302;51.154;4.456;2022-12-19T05:49:54;2.20;;;1.42;;
16385;SDS011;8302;51.154;4.456;2022-12-19T05:52:22;2.90;;;1.45;;
16385;SDS011;8302;51.154;4.456;2022-12-19T05:54:50;1.98;;;1.35;;
16385;SDS011;8302;51.154;4.456;2022-12-19T05:57:18;2.67;;;2.00;;
16385;SDS011;8302;51.154;4.456;2022-12-19T05:59:48;3.10;;;2.00;;
16385;SDS011;8302;51.154;4.456;2022-12-19T06:02:15;3.42;;;1.50;;
16385;SDS011;8302;51.154;4.456;2022-12-19T06:04:44;2.75;;;1.83;;
16385;SDS011;8302;51.154;4.456;2022-12-19T06:07:11;3.53;;;2.10;;
16385;SDS011;8302;51.154;4.456;2022-12-19T06:09:46;4.60;;;2.08;;
16385;SDS011;8302;51.154;4.456;2022-12-19T06:12:14;2.92;;;1.73;;
16385;SDS011;8302;51.154;4.456;2022-12-19T06:14:42;1.55;;;1.27;;
16385;SDS011;8302;51.154;4.456;2022-12-19T06:17:11;3.90;;;2.03;;
16385;SDS011;8302;51.154;4.456;2022-12-19T06:19:39;2.85;;;1.85;;
16385;SDS011;8302;51.154;4.456;2022-12-19T06:22:07;5.35;;;1.85;;
16385;SDS011;8302;51.154;4.456;2022-12-19T06:24:35;6.07;;;1.95;;
16385;SDS011;8302;51.154;4.456;2022-12-19T06:27:03;2.42;;;1.70;;
16385;SDS011;8302;51.154;4.456;2022-12-19T06:29:31;7.55;;;2.80;;
16385;SDS011;8302;51.154;4.456;2022-12-19T06:31:59;6.53;;;2.28;;
16385;SDS011;8302;51.154;4.456;2022-12-19T06:34:28;3.10;;;1.75;;
16385;SDS011;8302;51.154;4.456;2022-12-19T06:37:16;3.45;;;1.42;;
16385;SDS011;8302;51.154;4.456;2022-12-19T06:39:44;6.60;;;2.28;;
16385;SDS011;8302;51.154;4.456;2022-12-19T06:42:12;6.20;;;1.85;;
16385;SDS011;8302;51.154;4.456;2022-12-19T06:44:51;4.68;;;2.13;;
16385;SDS011;8302;51.154;4.456;2022-12-19T06:47:22;8.23;;;2.25;;
16385;SDS011;8302;51.154;4.456;2022-12-19T06:49:52;5.47;;;2.75;;
16385;SDS011;8302;51.154;4.456;2022-12-19T06:52:20;4.63;;;1.75;;
16385;SDS011;8302;51.154;4.456;2022-12-19T06:54:48;7.25;;;2.20;;
16385;SDS011;8302;51.154;4.456;2022-12-19T06:57:16;6.03;;;2.90;;
16385;SDS011;8302;51.154;4.456;2022-12-19T06:59:43;5.20;;;2.58;;
16385;SDS011;8302;51.154;4.456;2022-12-19T07:02:17;5.45;;;2.40;;
16385;SDS011;8302;51.154;4.456;2022-12-19T07:04:49;8.98;;;2.65;;
16385;SDS011;8302;51.154;4.456;2022-12-19T07:07:19;3.03;;;2.42;;
16385;SDS011;8302;51.154;4.456;2022-12-19T07:09:47;5.32;;;2.60;;
16385;SDS011;8302;51.154;4.456;2022-12-19T07:12:15;3.17;;;1.65;;
16385;SDS011;8302;51.154;4.456;2022-12-19T07:14:43;4.20;;;2.20;;
16385;SDS011;8302;51.154;4.456;2022-12-19T07:17:18;3.45;;;2.03;;
16385;SDS011;8302;51.154;4.456;2022-12-19T07:19:46;3.97;;;1.92;;
16385;SDS011;8302;51.154;4.456;2022-12-19T07:22:16;7.40;;;2.70;;
16385;SDS011;8302;51.154;4.456;2022-12-19T07:24:46;7.32;;;2.47;;
16385;SDS011;8302;51.154;4.456;2022-12-19T07:27:14;5.13;;;2.33;;
16385;SDS011;8302;51.154;4.456;2022-12-19T07:29:42;4.00;;;2.45;;
16385;SDS011;8302;51.154;4.456;2022-12-19T07:32:10;6.32;;;2.20;;
16385;SDS011;8302;51.154;4.456;2022-12-19T07:34:38;4.10;;;2.08;;
16385;SDS011;8302;51.154;4.456;2022-12-19T07:37:05;5.03;;;2.95;;
16385;SDS011;8302;51.154;4.456;2022-12-19T07:39:33;3.28;;;1.90;;
16385;SDS011;8302;51.154;4.456;2022-12-19T07:42:02;7.15;;;2.30;;
16385;SDS011;8302;51.154;4.456;2022-12-19T07:44:37;3.28;;;1.73;;
16385;SDS011;8302;51.154;4.456;2022-12-19T07:47:08;4.03;;;1.77;;
16385;SDS011;8302;51.154;4.456;2022-12-19T07:49:36;3.67;;;1.75;;
16385;SDS011;8302;51.154;4.456;2022-12-19T07:52:03;2.33;;;1.60;;
16385;SDS011;8302;51.154;4.456;2022-12-19T07:54:31;3.00;;;1.90;;
16385;SDS011;8302;51.154;4.456;2022-12-19T07:57:00;4.28;;;2.10;;
16385;SDS011;8302;51.154;4.456;2022-12-19T07:59:30;4.40;;;1.75;;
16385;SDS011;8302;51.154;4.456;2022-12-19T08:02:04;1.92;;;1.17;;
16385;SDS011;8302;51.154;4.456;2022-12-19T08:04:33;4.20;;;2.20;;
16385;SDS011;8302;51.154;4.456;2022-12-19T08:07:01;1.92;;;1.23;;
16385;SDS011;8302;51.154;4.456;2022-12-19T08:09:29;2.85;;;1.65;;
16385;SDS011;8302;51.154;4.456;2022-12-19T08:11:57;2.13;;;1.38;;
16385;SDS011;8302;51.154;4.456;2022-12-19T08:14:25;2.42;;;1.52;;
16385;SDS011;8302;51.154;4.456;2022-12-19T08:16:55;2.00;;;1.60;;
16385;SDS011;8302;51.154;4.456;2022-12-19T08:19:43;3.83;;;2.22;;
16385;SDS011;8302;51.154;4.456;2022-12-19T08:22:10;2.17;;;1.27;;
16385;SDS011;8302;51.154;4.456;2022-12-19T08:24:38;2.72;;;1.60;;
16385;SDS011;8302;51.154;4.456;2022-12-19T08:27:06;4.53;;;1.67;;
16385;SDS011;8302;51.154;4.456;2022-12-19T08:29:34;2.15;;;1.75;;
16385;SDS011;8302;51.154;4.456;2022-12-19T08:32:04;2.20;;;1.35;;
16385;SDS011;8302;51.154;4.456;2022-12-19T08:34:32;2.70;;;1.60;;
16385;SDS011;8302;51.154;4.456;2022-12-19T08:36:59;2.80;;;2.15;;
16385;SDS011;8302;51.154;4.456;2022-12-19T08:39:27;2.40;;;1.50;;
16385;SDS011;8302;51.154;4.456;2022-12-19T08:41:55;2.25;;;1.60;;
16385;SDS011;8302;51.154;4.456;2022-12-19T08:44:23;2.65;;;1.45;;
16385;SDS011;8302;51.154;4.456;2022-12-19T08:46:51;3.72;;;1.30;;
16385;SDS011;8302;51.154;4.456;2022-12-19T08:49:20;1.77;;;1.40;;
16385;SDS011;8302;51.154;4.456;2022-12-19T08:51:48;1.70;;;1.13;;
16385;SDS011;8302;51.154;4.456;2022-12-19T08:54:16;2.45;;;1.55;;
16385;SDS011;8302;51.154;4.456;2022-12-19T08:56:44;2.28;;;1.75;;
16385;SDS011;8302;51.154;4.456;2022-12-19T08:59:13;1.92;;;1.45;;
16385;SDS011;8302;51.154;4.456;2022-12-19T09:01:56;2.05;;;1.60;;
16385;SDS011;8302;51.154;4.456;2022-12-19T09:04:25;2.50;;;1.70;;
16385;SDS011;8302;51.154;4.456;2022-12-19T09:07:13;2.45;;;1.48;;
16385;SDS011;8302;51.154;4.456;2022-12-19T09:09:42;2.35;;;1.55;;
16385;SDS011;8302;51.154;4.456;2022-12-19T09:12:10;1.35;;;0.80;;
16385;SDS011;8302;51.154;4.456;2022-12-19T09:14:38;3.60;;;1.55;;
16385;SDS011;8302;51.154;4.456;2022-12-19T09:17:07;3.83;;;1.80;;
16385;SDS011;8302;51.154;4.456;2022-12-19T09:19:36;1.77;;;1.40;;
16385;SDS011;8302;51.154;4.456;2022-12-19T09:22:09;2.33;;;1.30;;
16385;SDS011;8302;51.154;4.456;2022-12-19T09:24:37;1.70;;;1.20;;
16385;SDS011;8302;51.154;4.456;2022-12-19T09:27:05;2.13;;;1.25;;
16385;SDS011;8302;51.154;4.456;2022-12-19T09:29:33;2.50;;;1.70;;
16385;SDS011;8302;51.154;4.456;2022-12-19T09:32:01;0.90;;;0.70;;
16385;SDS011;8302;51.154;4.456;2022-12-19T09:34:29;1.00;;;0.60;;
16385;SDS011;8302;51.154;4.456;2022-12-19T09:37:05;2.22;;;1.23;;
16385;SDS011;8302;51.154;4.456;2022-12-19T09:39:33;1.38;;;1.10;;
16385;SDS011;8302;51.154;4.456;2022-12-19T09:42:05;2.70;;;1.67;;
16385;SDS011;8302;51.154;4.456;2022-12-19T09:44:42;1.88;;;1.48;;
16385;SDS011;8302;51.154;4.456;2022-12-19T09:47:16;3.30;;;1.48;;
16385;SDS011;8302;51.154;4.456;2022-12-19T09:49:45;1.48;;;1.30;;
16385;SDS011;8302;51.154;4.456;2022-12-19T09:52:15;2.03;;;1.50;;
16385;SDS011;8302;51.154;4.456;2022-12-19T09:54:46;1.98;;;1.40;;
16385;SDS011;8302;51.154;4.456;2022-12-19T09:57:17;1.70;;;1.40;;
16385;SDS011;8302;51.154;4.456;2022-12-19T09:59:47;4.35;;;1.45;;
16385;SDS011;8302;51.154;4.456;2022-12-19T10:02:29;2.35;;;1.70;;
16385;SDS011;8302;51.154;4.456;2022-12-19T10:05:01;1.33;;;0.90;;
16385;SDS011;8302;51.154;4.456;2022-12-19T10:07:52;1.25;;;1.10;;
16385;SDS011;8302;51.154;4.456;2022-12-19T10:10:38;2.20;;;1.35;;
16385;SDS011;8302;51.154;4.456;2022-12-19T10:13:31;2.10;;;1.27;;
16385;SDS011;8302;51.154;4.456;2022-12-19T10:16:04;1.67;;;1.20;;
16385;SDS011;8302;51.154;4.456;2022-12-19T10:18:37;1.90;;;1.20;;
16385;SDS011;8302;51.154;4.456;2022-12-19T10:21:10;1.75;;;0.95;;
16385;SDS011;8302;51.154;4.456;2022-12-19T10:23:45;1.45;;;1.20;;
16385;SDS011;8302;51.154;4.456;2022-12-19T10:26:18;3.53;;;1.08;;
16385;SDS011;8302;51.154;4.456;2022-12-19T10:28:53;1.67;;;1.17;;
16385;SDS011;8302;51.154;4.456;2022-12-19T10:31:26;1.60;;;1.20;;
16385;SDS011;8302;51.154;4.456;2022-12-19T10:33:58;2.95;;;1.50;;
16385;SDS011;8302;51.154;4.456;2022-12-19T10:36:29;1.08;;;0.93;;
16385;SDS011;8302;51.154;4.456;2022-12-19T10:39:22;1.45;;;1.15;;
16385;SDS011;8302;51.154;4.456;2022-12-19T10:41:53;1.80;;;1.40;;
16385;SDS011;8302;51.154;4.456;2022-12-19T10:44:22;1.65;;;1.33;;
16385;SDS011;8302;51.154;4.456;2022-12-19T10:46:52;2.92;;;1.00;;
16385;SDS011;8302;51.154;4.456;2022-12-19T10:49:20;2.58;;;1.33;;
16385;SDS011;8302;51.154;4.456;2022-12-19T10:51:52;1.42;;;0.85;;
16385;SDS011;8302;51.154;4.456;2022-12-19T10:54:35;1.67;;;1.20;;
16385;SDS011;8302;51.154;4.456;2022-12-19T10:57:15;2.80;;;1.52;;
16385;SDS011;8302;51.154;4.456;2022-12-19T10:59:51;2.70;;;1.08;;
16385;SDS011;8302;51.154;4.456;2022-12-19T11:02:24;2.58;;;1.73;;
16385;SDS011;8302;51.154;4.456;2022-12-19T11:04:54;2.83;;;1.10;;
16385;SDS011;8302;51.154;4.456;2022-12-19T11:07:22;2.30;;;1.42;;
16385;SDS011;8302;51.154;4.456;2022-12-19T11:09:51;1.50;;;1.20;;
16385;SDS011;8302;51.154;4.456;2022-12-19T11:12:40;2.00;;;1.30;;
16385;SDS011;8302;51.154;4.456;2022-12-19T11:15:38;2.15;;;1.20;;
16385;SDS011;8302;51.154;4.456;2022-12-19T11:18:33;1.88;;;1.42;;
16385;SDS011;8302;51.154;4.456;2022-12-19T11:21:23;0.60;;;0.60;;
16385;SDS011;8302;51.154;4.456;2022-12-19T11:24:17;2.65;;;1.80;;
16385;SDS011;8302;51.154;4.456;2022-12-19T11:27:27;1.85;;;1.30;;
16385;SDS011;8302;51.154;4.456;2022-12-19T11:30:20;1.65;;;1.08;;
16385;SDS011;8302;51.154;4.456;2022-12-19T11:33:11;2.58;;;1.23;;
16385;SDS011;8302;51.154;4.456;2022-12-19T11:35:46;1.30;;;1.20;;
16385;SDS011;8302;51.154;4.456;2022-12-19T11:38:16;2.45;;;1.00;;
16385;SDS011;8302;51.154;4.456;2022-12-19T11:40:45;1.80;;;1.30;;
16385;SDS011;8302;51.154;4.456;2022-12-19T11:43:17;2.20;;;1.13;;
16385;SDS011;8302;51.154;4.456;2022-12-19T11:46:09;1.13;;;0.63;;
16385;SDS011;8302;51.154;4.456;2022-12-19T11:48:48;1.23;;;1.00;;
16385;SDS011;8302;51.154;4.456;2022-12-19T11:51:20;0.88;;;0.88;;
16385;SDS011;8302;51.154;4.456;2022-12-19T11:53:54;2.20;;;0.70;;
16385;SDS011;8302;51.154;4.456;2022-12-19T11:56:23;1.52;;;1.13;;
16385;SDS011;8302;51.154;4.456;2022-12-19T11:58:55;1.48;;;0.90;;
16385;SDS011;8302;51.154;4.456;2022-12-19T12:01:33;1.27;;;0.80;;
16385;SDS011;8302;51.154;4.456;2022-12-19T12:04:07;1.55;;;1.10;;
16385;SDS011;8302;51.154;4.456;2022-12-19T12:06:45;1.63;;;0.80;;
16385;SDS011;8302;51.154;4.456;2022-12-19T12:09:16;0.80;;;0.80;;
16385;SDS011;8302;51.154;4.456;2022-12-19T12:12:09;1.48;;;1.20;;
16385;SDS011;8302;51.154;4.456;2022-12-19T12:18:04;1.48;;;0.93;;
16385;SDS011;8302;51.154;4.456;2022-12-19T12:20:57;2.28;;;1.30;;
16385;SDS011;8302;51.154;4.456;2022-12-19T12:23:53;1.92;;;0.93;;
16385;SDS011;8302;51.154;4.456;2022-12-19T12:26:46;2.05;;;1.10;;
16385;SDS011;8302;51.154;4.456;2022-12-19T12:29:37;1.13;;;0.93;;
16385;SDS011;8302;51.154;4.456;2022-12-19T12:32:31;1.80;;;1.00;;
16385;SDS011;8302;51.154;4.456;2022-12-19T12:35:28;1.15;;;1.05;;
16385;SDS011;8302;51.154;4.456;2022-12-19T12:38:23;2.42;;;1.10;;
16385;SDS011;8302;51.154;4.456;2022-12-19T12:41:03;1.17;;;1.00;;
16385;SDS011;8302;51.154;4.456;2022-12-19T12:46:23;1.77;;;1.20;;
16385;SDS011;8302;51.154;4.456;2022-12-19T12:48:54;1.83;;;1.20;;
16385;SDS011;8302;51.154;4.456;2022-12-19T12:51:25;2.50;;;1.40;;
16385;SDS011;8302;51.154;4.456;2022-12-19T12:53:54;1.85;;;1.00;;
16385;SDS011;8302;51.154;4.456;2022-12-19T12:56:24;1.50;;;1.02;;
16385;SDS011;8302;51.154;4.456;2022-12-19T12:59:03;2.05;;;0.98;;
16385;SDS011;8302;51.154;4.456;2022-12-19T13:01:35;1.50;;;1.30;;
16385;SDS011;8302;51.154;4.456;2022-12-19T13:04:04;2.20;;;1.20;;
16385;SDS011;8302;51.154;4.456;2022-12-19T13:06:35;1.35;;;1.10;;
16385;SDS011;8302;51.154;4.456;2022-12-19T13:09:04;2.03;;;1.25;;
16385;SDS011;8302;51.154;4.456;2022-12-19T13:11:45;1.38;;;1.20;;
16385;SDS011;8302;51.154;4.456;2022-12-19T13:14:44;2.13;;;1.27;;
16385;SDS011;8302;51.154;4.456;2022-12-19T13:17:16;1.70;;;1.45;;
16385;SDS011;8302;51.154;4.456;2022-12-19T13:19:52;3.60;;;1.05;;
16385;SDS011;8302;51.154;4.456;2022-12-19T13:22:34;1.17;;;0.85;;
16385;SDS011;8302;51.154;4.456;2022-12-19T13:27:49;1.88;;;1.00;;
16385;SDS011;8302;51.154;4.456;2022-12-19T13:30:18;1.75;;;1.05;;
16385;SDS011;8302;51.154;4.456;2022-12-19T13:35:42;1.17;;;1.00;;
16385;SDS011;8302;51.154;4.456;2022-12-19T13:38:31;2.05;;;1.40;;
16385;SDS011;8302;51.154;4.456;2022-12-19T13:41:31;1.52;;;1.27;;
16385;SDS011;8302;51.154;4.456;2022-12-19T13:44:24;1.17;;;0.90;;
16385;SDS011;8302;51.154;4.456;2022-12-19T13:46:53;1.67;;;1.23;;
16385;SDS011;8302;51.154;4.456;2022-12-19T13:49:23;1.35;;;1.10;;
16385;SDS011;8302;51.154;4.456;2022-12-19T13:51:57;1.60;;;1.15;;
16385;SDS011;8302;51.154;4.456;2022-12-19T13:54:27;2.33;;;1.30;;
16385;SDS011;8302;51.154;4.456;2022-12-19T13:56:57;1.20;;;1.10;;
16385;SDS011;8302;51.154;4.456;2022-12-19T13:59:35;1.33;;;1.23;;
16385;SDS011;8302;51.154;4.456;2022-12-19T14:02:05;1.40;;;1.02;;
16385;SDS011;8302;51.154;4.456;2022-12-19T14:04:34;2.08;;;1.02;;
16385;SDS011;8302;51.154;4.456;2022-12-19T14:07:03;2.92;;;1.27;;
16385;SDS011;8302;51.154;4.456;2022-12-19T14:09:33;1.17;;;1.00;;
16385;SDS011;8302;51.154;4.456;2022-12-19T14:12:22;1.40;;;1.10;;
16385;SDS011;8302;51.154;4.456;2022-12-19T14:15:30;2.42;;;1.20;;
16385;SDS011;8302;51.154;4.456;2022-12-19T14:17:59;1.38;;;1.27;;
16385;SDS011;8302;51.154;4.456;2022-12-19T14:20:47;1.73;;;1.42;;
16385;SDS011;8302;51.154;4.456;2022-12-19T14:23:35;3.08;;;1.10;;
16385;SDS011;8302;51.154;4.456;2022-12-19T14:26:11;1.25;;;1.00;;
16385;SDS011;8302;51.154;4.456;2022-12-19T14:29:00;1.38;;;1.20;;
16385;SDS011;8302;51.154;4.456;2022-12-19T14:31:29;2.38;;;1.15;;
16385;SDS011;8302;51.154;4.456;2022-12-19T14:33:58;1.23;;;0.88;;
16385;SDS011;8302;51.154;4.456;2022-12-19T14:36:47;2.03;;;1.00;;
16385;SDS011;8302;51.154;4.456;2022-12-19T14:39:16;2.03;;;1.10;;
16385;SDS011;8302;51.154;4.456;2022-12-19T14:41:59;1.67;;;0.90;;
16385;SDS011;8302;51.154;4.456;2022-12-19T14:48:24;1.13;;;0.98;;
16385;SDS011;8302;51.154;4.456;2022-12-19T14:51:12;1.52;;;1.00;;
16385;SDS011;8302;51.154;4.456;2022-12-19T14:54:01;1.30;;;0.98;;
16385;SDS011;8302;51.154;4.456;2022-12-19T14:56:50;0.80;;;0.80;;
16385;SDS011;8302;51.154;4.456;2022-12-19T14:59:32;2.50;;;1.58;;
16385;SDS011;8302;51.154;4.456;2022-12-19T15:02:03;0.80;;;0.80;;
16385;SDS011;8302;51.154;4.456;2022-12-19T15:04:37;1.20;;;0.88;;
16385;SDS011;8302;51.154;4.456;2022-12-19T15:07:20;1.33;;;0.90;;
16385;SDS011;8302;51.154;4.456;2022-12-19T15:09:51;1.77;;;1.08;;
16385;SDS011;8302;51.154;4.456;2022-12-19T15:12:47;1.33;;;0.90;;
16385;SDS011;8302;51.154;4.456;2022-12-19T15:15:54;1.25;;;1.10;;
16385;SDS011;8302;51.154;4.456;2022-12-19T15:18:25;0.88;;;0.80;;
16385;SDS011;8302;51.154;4.456;2022-12-19T15:20:54;2.58;;;1.05;;
16385;SDS011;8302;51.154;4.456;2022-12-19T15:23:23;0.80;;;0.80;;
16385;SDS011;8302;51.154;4.456;2022-12-19T15:25:51;1.88;;;1.23;;
16385;SDS011;8302;51.154;4.456;2022-12-19T15:28:33;1.52;;;1.00;;
16385;SDS011;8302;51.154;4.456;2022-12-19T15:31:04;1.20;;;1.10;;
16385;SDS011;8302;51.154;4.456;2022-12-19T15:33:33;2.22;;;1.10;;
16385;SDS011;8302;51.154;4.456;2022-12-19T15:36:13;1.65;;;1.10;;
16385;SDS011;8302;51.154;4.456;2022-12-19T15:38:41;3.03;;;1.52;;
16385;SDS011;8302;51.154;4.456;2022-12-19T15:41:09;1.85;;;1.33;;
16385;SDS011;8302;51.154;4.456;2022-12-19T15:43:40;2.22;;;1.38;;
16385;SDS011;8302;51.154;4.456;2022-12-19T15:46:29;1.30;;;1.05;;
16385;SDS011;8302;51.154;4.456;2022-12-19T15:48:57;1.98;;;1.20;;
16385;SDS011;8302;51.154;4.456;2022-12-19T15:51:25;2.05;;;1.42;;
16385;SDS011;8302;51.154;4.456;2022-12-19T15:53:53;1.85;;;1.17;;